sensor_id;sensor_type;location;lat;lon;timestamp;temperature;humidity
14873;DHT22;7528;48.576;19.122;2022-09-01T00:01:00;21.10;68.50
14873;DHT22;7528;48.576;19.122;2022-09-01T00:06:05;21.00;67.60
14873;DHT22;7528;48.576;19.122;2022-09-01T00:11:12;20.90;67.50
14873;DHT22;7528;48.576;19.122;2022-09-01T00:16:17;20.80;67.90
14873;DHT22;7528;48.576;19.122;2022-09-01T00:21:23;20.70;68.20
14873;DHT22;7528;48.576;19.122;2022-09-01T00:26:27;20.70;69.10
14873;DHT22;7528;48.576;19.122;2022-09-01T00:31:31;20.70;69.70
14873;DHT22;7528;48.576;19.122;2022-09-01T00:36:35;20.70;69.30
14873;DHT22;7528;48.576;19.122;2022-09-01T00:41:39;20.60;69.80
14873;DHT22;7528;48.576;19.122;2022-09-01T00:46:47;20.60;69.60
14873;DHT22;7528;48.576;19.122;2022-09-01T00:51:54;20.60;68.90
14873;DHT22;7528;48.576;19.122;2022-09-01T00:57:00;20.50;69.80
14873;DHT22;7528;48.576;19.122;2022-09-01T01:02:05;20.50;69.80
14873;DHT22;7528;48.576;19.122;2022-09-01T01:07:10;20.50;69.70
14873;DHT22;7528;48.576;19.122;2022-09-01T01:12:14;20.40;70.70
14873;DHT22;7528;48.576;19.122;2022-09-01T01:17:21;20.40;70.80
14873;DHT22;7528;48.576;19.122;2022-09-01T01:22:34;20.30;71.40
14873;DHT22;7528;48.576;19.122;2022-09-01T01:28:05;20.30;71.30
14873;DHT22;7528;48.576;19.122;2022-09-01T01:33:10;20.40;71.20
14873;DHT22;7528;48.576;19.122;2022-09-01T01:38:13;20.30;71.10
14873;DHT22;7528;48.576;19.122;2022-09-01T01:43:18;20.30;71.50
14873;DHT22;7528;48.576;19.122;2022-09-01T01:48:22;20.30;72.40
14873;DHT22;7528;48.576;19.122;2022-09-01T01:53:26;20.30;71.80
14873;DHT22;7528;48.576;19.122;2022-09-01T01:58:32;20.20;71.50
14873;DHT22;7528;48.576;19.122;2022-09-01T02:03:37;20.20;71.80
14873;DHT22;7528;48.576;19.122;2022-09-01T02:08:40;20.20;72.50
14873;DHT22;7528;48.576;19.122;2022-09-01T02:13:45;20.20;73.00
14873;DHT22;7528;48.576;19.122;2022-09-01T02:18:50;20.20;72.40
14873;DHT22;7528;48.576;19.122;2022-09-01T02:23:57;20.10;71.60
14873;DHT22;7528;48.576;19.122;2022-09-01T02:29:05;20.20;73.20
14873;DHT22;7528;48.576;19.122;2022-09-01T02:34:14;20.10;73.40
14873;DHT22;7528;48.576;19.122;2022-09-01T02:39:20;20.00;73.50
14873;DHT22;7528;48.576;19.122;2022-09-01T02:44:25;20.10;73.00
14873;DHT22;7528;48.576;19.122;2022-09-01T02:49:29;20.10;73.20
14873;DHT22;7528;48.576;19.122;2022-09-01T02:54:33;20.00;73.50
14873;DHT22;7528;48.576;19.122;2022-09-01T02:59:38;20.00;73.20
14873;DHT22;7528;48.576;19.122;2022-09-01T03:04:42;20.00;73.10
14873;DHT22;7528;48.576;19.122;2022-09-01T03:09:45;19.90;73.60
14873;DHT22;7528;48.576;19.122;2022-09-01T03:14:50;19.90;73.60
14873;DHT22;7528;48.576;19.122;2022-09-01T03:19:53;19.90;73.60
14873;DHT22;7528;48.576;19.122;2022-09-01T03:24:56;19.90;73.70
14873;DHT22;7528;48.576;19.122;2022-09-01T03:30:01;19.90;73.60
14873;DHT22;7528;48.576;19.122;2022-09-01T03:35:05;19.80;73.80
14873;DHT22;7528;48.576;19.122;2022-09-01T03:40:10;19.80;73.90
14873;DHT22;7528;48.576;19.122;2022-09-01T03:45:15;19.80;74.10
14873;DHT22;7528;48.576;19.122;2022-09-01T03:50:25;19.70;74.10
14873;DHT22;7528;48.576;19.122;2022-09-01T03:55:31;19.70;74.60
14873;DHT22;7528;48.576;19.122;2022-09-01T04:00:41;19.60;75.00
14873;DHT22;7528;48.576;19.122;2022-09-01T04:05:44;19.60;75.10
14873;DHT22;7528;48.576;19.122;2022-09-01T04:10:50;19.60;75.30
14873;DHT22;7528;48.576;19.122;2022-09-01T04:15:56;19.60;76.30
14873;DHT22;7528;48.576;19.122;2022-09-01T04:20:59;19.60;77.20
14873;DHT22;7528;48.576;19.122;2022-09-01T04:26:06;19.60;76.70
14873;DHT22;7528;48.576;19.122;2022-09-01T04:31:15;19.70;76.30
14873;DHT22;7528;48.576;19.122;2022-09-01T04:36:23;19.60;76.90
14873;DHT22;7528;48.576;19.122;2022-09-01T04:41:28;19.50;77.70
14873;DHT22;7528;48.576;19.122;2022-09-01T04:46:41;19.60;77.50
14873;DHT22;7528;48.576;19.122;2022-09-01T04:51:49;19.50;77.60
14873;DHT22;7528;48.576;19.122;2022-09-01T04:56:53;19.50;77.20
14873;DHT22;7528;48.576;19.122;2022-09-01T05:01:57;19.60;77.60
14873;DHT22;7528;48.576;19.122;2022-09-01T05:07:02;19.60;76.80
14873;DHT22;7528;48.576;19.122;2022-09-01T05:12:11;19.60;76.90
14873;DHT22;7528;48.576;19.122;2022-09-01T05:17:18;19.60;77.10
14873;DHT22;7528;48.576;19.122;2022-09-01T05:22:23;19.60;76.50
14873;DHT22;7528;48.576;19.122;2022-09-01T05:27:33;19.60;77.30
14873;DHT22;7528;48.576;19.122;2022-09-01T05:32:38;19.50;77.70
14873;DHT22;7528;48.576;19.122;2022-09-01T05:37:41;19.40;77.50
14873;DHT22;7528;48.576;19.122;2022-09-01T05:42:45;19.40;77.80
14873;DHT22;7528;48.576;19.122;2022-09-01T05:47:50;19.50;78.00
14873;DHT22;7528;48.576;19.122;2022-09-01T05:52:55;19.50;78.90
14873;DHT22;7528;48.576;19.122;2022-09-01T05:57:58;19.50;78.30
14873;DHT22;7528;48.576;19.122;2022-09-01T06:03:03;19.50;77.40
14873;DHT22;7528;48.576;19.122;2022-09-01T06:08:08;19.60;78.70
14873;DHT22;7528;48.576;19.122;2022-09-01T06:13:15;19.70;78.10
14873;DHT22;7528;48.576;19.122;2022-09-01T06:18:23;19.70;78.40
14873;DHT22;7528;48.576;19.122;2022-09-01T06:23:32;19.80;77.70
14873;DHT22;7528;48.576;19.122;2022-09-01T06:28:35;19.80;78.20
14873;DHT22;7528;48.576;19.122;2022-09-01T06:33:42;19.80;78.00
14873;DHT22;7528;48.576;19.122;2022-09-01T06:38:47;19.80;78.50
14873;DHT22;7528;48.576;19.122;2022-09-01T06:43:50;19.90;76.80
14873;DHT22;7528;48.576;19.122;2022-09-01T06:48:56;20.00;76.70
14873;DHT22;7528;48.576;19.122;2022-09-01T06:54:00;20.10;78.70
14873;DHT22;7528;48.576;19.122;2022-09-01T06:59:06;20.10;76.20
14873;DHT22;7528;48.576;19.122;2022-09-01T07:04:12;20.20;75.30
14873;DHT22;7528;48.576;19.122;2022-09-01T07:09:22;20.20;74.00
14873;DHT22;7528;48.576;19.122;2022-09-01T07:14:48;20.30;73.70
14873;DHT22;7528;48.576;19.122;2022-09-01T07:19:54;20.40;70.60
14873;DHT22;7528;48.576;19.122;2022-09-01T07:24:59;20.60;69.10
14873;DHT22;7528;48.576;19.122;2022-09-01T07:30:03;20.70;69.10
14873;DHT22;7528;48.576;19.122;2022-09-01T07:35:12;20.80;68.00
14873;DHT22;7528;48.576;19.122;2022-09-01T07:40:17;21.10;67.80
14873;DHT22;7528;48.576;19.122;2022-09-01T07:45:53;21.30;65.90
14873;DHT22;7528;48.576;19.122;2022-09-01T07:51:00;21.70;66.30
14873;DHT22;7528;48.576;19.122;2022-09-01T07:56:06;22.00;62.30
14873;DHT22;7528;48.576;19.122;2022-09-01T08:01:16;22.40;61.90
14873;DHT22;7528;48.576;19.122;2022-09-01T08:06:25;22.80;60.50
14873;DHT22;7528;48.576;19.122;2022-09-01T08:11:30;22.90;51.30
14873;DHT22;7528;48.576;19.122;2022-09-01T08:16:33;22.90;48.30
14873;DHT22;7528;48.576;19.122;2022-09-01T08:21:39;23.10;47.30
14873;DHT22;7528;48.576;19.122;2022-09-01T08:27:00;23.20;46.70
14873;DHT22;7528;48.576;19.122;2022-09-01T08:32:04;23.60;45.00
14873;DHT22;7528;48.576;19.122;2022-09-01T08:37:08;23.80;44.10
14873;DHT22;7528;48.576;19.122;2022-09-01T08:42:17;23.90;45.20
14873;DHT22;7528;48.576;19.122;2022-09-01T08:47:25;24.20;44.90
14873;DHT22;7528;48.576;19.122;2022-09-01T08:52:34;24.40;41.80
14873;DHT22;7528;48.576;19.122;2022-09-01T08:57:41;24.80;41.10
14873;DHT22;7528;48.576;19.122;2022-09-01T09:03:06;25.10;40.80
14873;DHT22;7528;48.576;19.122;2022-09-01T09:08:29;25.20;43.40
14873;DHT22;7528;48.576;19.122;2022-09-01T09:13:44;25.30;41.40
14873;DHT22;7528;48.576;19.122;2022-09-01T09:18:54;25.20;41.70
14873;DHT22;7528;48.576;19.122;2022-09-01T09:24:08;25.10;40.10
14873;DHT22;7528;48.576;19.122;2022-09-01T09:29:11;25.00;40.30
14873;DHT22;7528;48.576;19.122;2022-09-01T09:34:29;25.10;40.60
14873;DHT22;7528;48.576;19.122;2022-09-01T09:39:35;25.30;40.30
14873;DHT22;7528;48.576;19.122;2022-09-01T09:44:44;25.40;39.40
14873;DHT22;7528;48.576;19.122;2022-09-01T09:50:10;25.50;38.80
14873;DHT22;7528;48.576;19.122;2022-09-01T09:55:25;25.50;38.10
14873;DHT22;7528;48.576;19.122;2022-09-01T10:00:30;25.60;39.10
14873;DHT22;7528;48.576;19.122;2022-09-01T10:05:38;25.70;40.00
14873;DHT22;7528;48.576;19.122;2022-09-01T10:10:44;25.80;38.10
14873;DHT22;7528;48.576;19.122;2022-09-01T10:15:49;25.80;38.50
14873;DHT22;7528;48.576;19.122;2022-09-01T10:20:56;26.00;38.30
14873;DHT22;7528;48.576;19.122;2022-09-01T10:26:05;25.80;38.40
14873;DHT22;7528;48.576;19.122;2022-09-01T10:31:10;26.10;37.60
14873;DHT22;7528;48.576;19.122;2022-09-01T10:36:14;26.40;37.00
14873;DHT22;7528;48.576;19.122;2022-09-01T10:41:44;26.60;36.80
14873;DHT22;7528;48.576;19.122;2022-09-01T10:46:51;26.90;37.50
14873;DHT22;7528;48.576;19.122;2022-09-01T10:51:55;26.90;35.30
14873;DHT22;7528;48.576;19.122;2022-09-01T10:57:01;26.90;34.50
14873;DHT22;7528;48.576;19.122;2022-09-01T11:02:12;27.00;34.20
14873;DHT22;7528;48.576;19.122;2022-09-01T11:07:29;27.20;34.40
14873;DHT22;7528;48.576;19.122;2022-09-01T11:12:48;27.20;35.20
14873;DHT22;7528;48.576;19.122;2022-09-01T11:17:55;27.30;36.80
14873;DHT22;7528;48.576;19.122;2022-09-01T11:23:02;27.40;32.50
14873;DHT22;7528;48.576;19.122;2022-09-01T11:28:38;27.60;34.00
14873;DHT22;7528;48.576;19.122;2022-09-01T11:33:52;28.00;32.70
14873;DHT22;7528;48.576;19.122;2022-09-01T11:39:07;28.30;32.50
14873;DHT22;7528;48.576;19.122;2022-09-01T11:44:14;28.60;32.10
14873;DHT22;7528;48.576;19.122;2022-09-01T11:49:27;28.60;31.60
14873;DHT22;7528;48.576;19.122;2022-09-01T11:54:39;28.90;31.30
14873;DHT22;7528;48.576;19.122;2022-09-01T11:59:43;29.10;31.30
14873;DHT22;7528;48.576;19.122;2022-09-01T12:04:46;29.10;32.00
14873;DHT22;7528;48.576;19.122;2022-09-01T12:09:49;29.50;34.30
14873;DHT22;7528;48.576;19.122;2022-09-01T12:14:57;29.60;31.90
14873;DHT22;7528;48.576;19.122;2022-09-01T12:20:25;29.60;32.30
14873;DHT22;7528;48.576;19.122;2022-09-01T12:25:31;29.50;33.30
14873;DHT22;7528;48.576;19.122;2022-09-01T12:30:37;29.70;31.00
14873;DHT22;7528;48.576;19.122;2022-09-01T12:35:42;29.50;31.20
14873;DHT22;7528;48.576;19.122;2022-09-01T12:40:46;29.50;30.40
14873;DHT22;7528;48.576;19.122;2022-09-01T12:45:51;29.80;29.50
14873;DHT22;7528;48.576;19.122;2022-09-01T12:50:56;30.30;32.00
14873;DHT22;7528;48.576;19.122;2022-09-01T12:56:17;30.40;30.40
14873;DHT22;7528;48.576;19.122;2022-09-01T13:01:27;30.40;29.90
14873;DHT22;7528;48.576;19.122;2022-09-01T13:06:30;30.50;29.60
14873;DHT22;7528;48.576;19.122;2022-09-01T13:11:33;30.30;30.00
14873;DHT22;7528;48.576;19.122;2022-09-01T13:16:38;30.10;29.20
14873;DHT22;7528;48.576;19.122;2022-09-01T13:21:41;30.10;30.40
14873;DHT22;7528;48.576;19.122;2022-09-01T13:26:44;30.00;29.90
14873;DHT22;7528;48.576;19.122;2022-09-01T13:31:50;30.20;31.60
14873;DHT22;7528;48.576;19.122;2022-09-01T13:36:53;30.20;29.60
14873;DHT22;7528;48.576;19.122;2022-09-01T13:41:56;30.00;28.80
14873;DHT22;7528;48.576;19.122;2022-09-01T13:47:00;29.80;30.10
14873;DHT22;7528;48.576;19.122;2022-09-01T13:52:04;29.90;28.90
14873;DHT22;7528;48.576;19.122;2022-09-01T13:57:07;29.70;30.50
14873;DHT22;7528;48.576;19.122;2022-09-01T14:02:13;29.80;31.00
14873;DHT22;7528;48.576;19.122;2022-09-01T14:07:16;29.90;31.00
14873;DHT22;7528;48.576;19.122;2022-09-01T14:12:20;29.80;31.10
14873;DHT22;7528;48.576;19.122;2022-09-01T14:17:25;29.40;31.20
14873;DHT22;7528;48.576;19.122;2022-09-01T14:22:28;28.90;32.00
14873;DHT22;7528;48.576;19.122;2022-09-01T14:27:31;28.80;33.50
14873;DHT22;7528;48.576;19.122;2022-09-01T14:32:35;28.70;33.90
14873;DHT22;7528;48.576;19.122;2022-09-01T14:37:39;28.60;34.70
14873;DHT22;7528;48.576;19.122;2022-09-01T14:42:43;28.70;34.90
14873;DHT22;7528;48.576;19.122;2022-09-01T14:47:51;28.60;35.40
14873;DHT22;7528;48.576;19.122;2022-09-01T14:52:55;28.40;35.90
14873;DHT22;7528;48.576;19.122;2022-09-01T14:57:59;28.30;35.20
14873;DHT22;7528;48.576;19.122;2022-09-01T15:03:03;28.20;36.20
14873;DHT22;7528;48.576;19.122;2022-09-01T15:08:07;28.30;36.90
14873;DHT22;7528;48.576;19.122;2022-09-01T15:13:10;28.40;35.40
14873;DHT22;7528;48.576;19.122;2022-09-01T15:18:15;28.30;36.00
14873;DHT22;7528;48.576;19.122;2022-09-01T15:23:20;28.00;35.70
14873;DHT22;7528;48.576;19.122;2022-09-01T15:28:23;27.70;35.60
14873;DHT22;7528;48.576;19.122;2022-09-01T15:33:28;27.20;35.40
14873;DHT22;7528;48.576;19.122;2022-09-01T15:38:31;27.00;36.40
14873;DHT22;7528;48.576;19.122;2022-09-01T15:43:34;26.80;36.90
14873;DHT22;7528;48.576;19.122;2022-09-01T15:48:39;26.60;37.10
14873;DHT22;7528;48.576;19.122;2022-09-01T15:53:44;26.30;36.90
14873;DHT22;7528;48.576;19.122;2022-09-01T15:58:48;26.20;37.30
14873;DHT22;7528;48.576;19.122;2022-09-01T16:03:53;25.90;37.30
14873;DHT22;7528;48.576;19.122;2022-09-01T16:08:56;25.70;37.70
14873;DHT22;7528;48.576;19.122;2022-09-01T16:13:59;25.60;37.70
14873;DHT22;7528;48.576;19.122;2022-09-01T16:19:10;25.50;38.10
14873;DHT22;7528;48.576;19.122;2022-09-01T16:24:17;25.40;38.40
14873;DHT22;7528;48.576;19.122;2022-09-01T16:29:27;25.30;38.30
14873;DHT22;7528;48.576;19.122;2022-09-01T16:34:41;25.30;38.90
14873;DHT22;7528;48.576;19.122;2022-09-01T16:39:49;25.30;40.60
14873;DHT22;7528;48.576;19.122;2022-09-01T16:45:03;25.40;41.20
14873;DHT22;7528;48.576;19.122;2022-09-01T16:50:14;25.30;42.70
14873;DHT22;7528;48.576;19.122;2022-09-01T16:55:25;25.30;44.40
14873;DHT22;7528;48.576;19.122;2022-09-01T17:00:39;25.20;43.60
14873;DHT22;7528;48.576;19.122;2022-09-01T17:05:53;25.10;43.10
14873;DHT22;7528;48.576;19.122;2022-09-01T17:11:01;25.00;41.70
14873;DHT22;7528;48.576;19.122;2022-09-01T17:16:15;24.80;40.50
14873;DHT22;7528;48.576;19.122;2022-09-01T17:21:30;24.60;39.30
14873;DHT22;7528;48.576;19.122;2022-09-01T17:26:34;24.50;39.70
14873;DHT22;7528;48.576;19.122;2022-09-01T17:31:49;24.30;40.10
14873;DHT22;7528;48.576;19.122;2022-09-01T17:37:04;24.20;40.30
14873;DHT22;7528;48.576;19.122;2022-09-01T17:42:14;24.00;40.40
14873;DHT22;7528;48.576;19.122;2022-09-01T17:47:32;23.90;40.50
14873;DHT22;7528;48.576;19.122;2022-09-01T17:52:46;23.70;40.70
14873;DHT22;7528;48.576;19.122;2022-09-01T17:57:57;23.50;40.80
14873;DHT22;7528;48.576;19.122;2022-09-01T18:03:22;23.40;41.30
14873;DHT22;7528;48.576;19.122;2022-09-01T18:08:36;23.30;41.30
14873;DHT22;7528;48.576;19.122;2022-09-01T18:13:44;23.30;41.60
14873;DHT22;7528;48.576;19.122;2022-09-01T18:18:50;23.20;41.70
14873;DHT22;7528;48.576;19.122;2022-09-01T18:24:03;23.30;41.60
14873;DHT22;7528;48.576;19.122;2022-09-01T18:29:08;23.10;41.90
14873;DHT22;7528;48.576;19.122;2022-09-01T18:34:15;23.00;42.00
14873;DHT22;7528;48.576;19.122;2022-09-01T18:39:27;23.00;42.90
14873;DHT22;7528;48.576;19.122;2022-09-01T18:44:46;23.00;42.80
14873;DHT22;7528;48.576;19.122;2022-09-01T18:50:02;23.00;45.40
14873;DHT22;7528;48.576;19.122;2022-09-01T18:55:17;23.00;43.40
14873;DHT22;7528;48.576;19.122;2022-09-01T19:00:24;22.90;44.00
14873;DHT22;7528;48.576;19.122;2022-09-01T19:05:52;22.90;43.60
14873;DHT22;7528;48.576;19.122;2022-09-01T19:11:04;23.10;45.00
14873;DHT22;7528;48.576;19.122;2022-09-01T19:16:14;23.10;45.70
14873;DHT22;7528;48.576;19.122;2022-09-01T19:21:22;22.90;43.90
14873;DHT22;7528;48.576;19.122;2022-09-01T19:26:31;22.90;45.00
14873;DHT22;7528;48.576;19.122;2022-09-01T19:31:43;22.90;45.00
14873;DHT22;7528;48.576;19.122;2022-09-01T19:36:49;22.90;45.10
14873;DHT22;7528;48.576;19.122;2022-09-01T19:41:59;22.70;47.20
14873;DHT22;7528;48.576;19.122;2022-09-01T19:47:08;22.70;46.40
14873;DHT22;7528;48.576;19.122;2022-09-01T19:52:19;22.70;45.50
14873;DHT22;7528;48.576;19.122;2022-09-01T19:57:32;22.70;44.70
14873;DHT22;7528;48.576;19.122;2022-09-01T20:02:40;22.60;47.10
14873;DHT22;7528;48.576;19.122;2022-09-01T20:07:50;22.60;46.60
14873;DHT22;7528;48.576;19.122;2022-09-01T20:13:12;22.40;47.20
14873;DHT22;7528;48.576;19.122;2022-09-01T20:18:24;22.40;45.20
14873;DHT22;7528;48.576;19.122;2022-09-01T20:23:32;22.40;46.60
14873;DHT22;7528;48.576;19.122;2022-09-01T20:28:47;22.30;46.30
14873;DHT22;7528;48.576;19.122;2022-09-01T20:33:56;22.30;46.80
14873;DHT22;7528;48.576;19.122;2022-09-01T20:39:04;22.40;46.50
14873;DHT22;7528;48.576;19.122;2022-09-01T20:44:37;22.20;47.80
14873;DHT22;7528;48.576;19.122;2022-09-01T20:49:42;22.10;48.10
14873;DHT22;7528;48.576;19.122;2022-09-01T20:54:50;22.10;48.20
14873;DHT22;7528;48.576;19.122;2022-09-01T21:00:03;21.90;48.10
14873;DHT22;7528;48.576;19.122;2022-09-01T21:05:18;21.90;48.40
14873;DHT22;7528;48.576;19.122;2022-09-01T21:10:28;21.80;48.20
14873;DHT22;7528;48.576;19.122;2022-09-01T21:15:41;21.80;48.60
14873;DHT22;7528;48.576;19.122;2022-09-01T21:20:54;21.70;48.60
14873;DHT22;7528;48.576;19.122;2022-09-01T21:25:59;21.60;48.80
14873;DHT22;7528;48.576;19.122;2022-09-01T21:31:05;21.50;48.70
14873;DHT22;7528;48.576;19.122;2022-09-01T21:36:09;21.60;49.40
14873;DHT22;7528;48.576;19.122;2022-09-01T21:41:12;21.40;49.30
14873;DHT22;7528;48.576;19.122;2022-09-01T21:46:17;21.30;49.80
14873;DHT22;7528;48.576;19.122;2022-09-01T21:51:20;21.20;50.20
14873;DHT22;7528;48.576;19.122;2022-09-01T21:56:23;21.20;50.50
14873;DHT22;7528;48.576;19.122;2022-09-01T22:01:28;21.10;50.60
14873;DHT22;7528;48.576;19.122;2022-09-01T22:06:32;21.10;50.80
14873;DHT22;7528;48.576;19.122;2022-09-01T22:11:35;21.00;51.00
14873;DHT22;7528;48.576;19.122;2022-09-01T22:16:40;21.00;51.40
14873;DHT22;7528;48.576;19.122;2022-09-01T22:21:43;20.90;51.60
14873;DHT22;7528;48.576;19.122;2022-09-01T22:26:47;20.90;51.40
14873;DHT22;7528;48.576;19.122;2022-09-01T22:31:52;20.90;52.00
14873;DHT22;7528;48.576;19.122;2022-09-01T22:36:55;20.80;52.10
14873;DHT22;7528;48.576;19.122;2022-09-01T22:41:58;20.70;52.80
14873;DHT22;7528;48.576;19.122;2022-09-01T22:47:02;20.60;52.40
14873;DHT22;7528;48.576;19.122;2022-09-01T22:52:05;20.60;52.80
14873;DHT22;7528;48.576;19.122;2022-09-01T22:57:08;20.50;53.20
14873;DHT22;7528;48.576;19.122;2022-09-01T23:02:13;20.50;52.40
14873;DHT22;7528;48.576;19.122;2022-09-01T23:07:16;20.40;52.70
14873;DHT22;7528;48.576;19.122;2022-09-01T23:12:19;20.40;52.60
14873;DHT22;7528;48.576;19.122;2022-09-01T23:17:23;20.30;53.10
14873;DHT22;7528;48.576;19.122;2022-09-01T23:22:26;20.20;53.90
14873;DHT22;7528;48.576;19.122;2022-09-01T23:27:29;20.20;54.20
14873;DHT22;7528;48.576;19.122;2022-09-01T23:32:34;20.10;54.40
14873;DHT22;7528;48.576;19.122;2022-09-01T23:37:37;19.90;55.10
14873;DHT22;7528;48.576;19.122;2022-09-01T23:42:40;19.80;55.60
14873;DHT22;7528;48.576;19.122;2022-09-01T23:47:45;19.90;55.50
14873;DHT22;7528;48.576;19.122;2022-09-01T23:52:48;19.80;55.10
14873;DHT22;7528;48.576;19.122;2022-09-01T23:57:51;19.80;55.80
